Latest Weather Observations for Tarcoola

IDS60801

Issued at 3:35 pm CST Sunday 21 September 2014 (issued every 30 minutes, with the page automatically refreshed every 10 minutes)

About weather observations | Map of weather stations | Latest weather observations for SA | Other Formats
Station Details ID: 016098 Name: TARCOOLA AERO Lat: -30.71 Lon: 134.58 Height: 123.0 m
Data from the previous 72 hours. | See also: Recent months at Tarcoola
Date/Time
CST
Temp
°C
App
Temp
°C
Dew
Point
Rel
Hum
%
Delta-T
°C
Wind Press
QNH
hPa
Press
MSL
hPa
Rain
since 9 am
mm
Dir
 
Spd
km/h
Gust
km/h
Spd
kts
Gust
kts
21/03:30pm 27.0 20.6 -7.2 10 14.0 N 19 26 10 14 1023.8 1023.6 0.0
21/03:00pm 26.7 19.7 -7.4 10 13.9 NE 22 35 12 19 1024.1 1023.9 0.0
21/02:30pm 26.3 20.3 -6.5 11 13.5 E 17 20 9 11 1024.6 1024.4 0.0
21/02:00pm 26.6 20.1 -6.2 11 13.7 ENE 20 30 11 16 1024.7 1024.5 0.0
21/01:30pm 25.9 18.9 -6.8 11 13.4 NE 22 41 12 22 1025.3 1025.1 0.0
21/01:00pm 25.7 18.0 -6.9 11 13.3 NNE 26 41 14 22 1025.9 1025.7 0.0
21/12:30pm 25.3 19.0 -6.1 12 12.9 E 19 28 10 15 1026.2 1026.0 0.0
21/12:00pm 25.2 17.9 -6.2 12 12.9 NE 24 35 13 19 1026.6 1026.4 0.0
21/11:30am 24.4 16.8 -5.8 13 12.4 E 26 35 14 19 1027.3 1027.2 0.0
21/11:00am 23.9 16.7 -5.2 14 12.1 E 24 32 13 17 1027.7 1027.6 0.0
21/10:30am 23.6 15.7 -4.5 15 11.7 NNE 28 39 15 21 1027.7 1027.6 0.0
21/10:00am 22.6 15.3 -2.9 18 10.9 NE 26 41 14 22 1028.0 1027.9 0.0
21/09:30am 21.8 14.4 -3.5 18 10.6 NE 26 35 14 19 1028.4 1028.3 0.0
21/09:00am 20.4 14.3 -2.6 21 9.7 NE 20 26 11 14 1028.5 1028.4 0.0
21/08:30am 19.3 12.8 -2.3 23 9.0 NE 22 30 12 16 1028.5 1028.4 0.0
21/08:00am 17.9 12.4 -1.9 26 8.3 NE 17 26 9 14 1028.1 1028.0 0.0
21/07:30am 15.4 11.5 -1.2 32 6.9 ENE 9 13 5 7 1027.6 1027.5 0.0
21/07:00am 11.5 7.1 -2.3 38 5.4 E 11 11 6 6 1027.2 1027.0 0.0
21/06:30am 9.1 4.7 -2.5 44 4.3 ENE 11 11 6 6 1026.9 1026.7 0.0
21/06:00am 9.2 5.1 -2.7 43 4.4 ENE 9 11 5 6 1026.8 1026.6 0.0
21/05:30am 8.5 4.3 -4.0 41 4.5 NE 9 9 5 5 1026.5 1026.3 0.0
21/05:00am 9.7 6.0 -2.9 41 4.7 NE 7 9 4 5 1026.1 1025.9 0.0
21/04:30am 11.1 7.6 -3.0 37 5.3 NNE 6 7 3 4 1025.7 1025.5 0.0
21/04:00am 11.6 9.3 -2.6 37 5.5 CALM 0 0 0 0 1025.5 1025.3 0.0
21/03:30am 12.3 8.3 -2.0 37 5.6 ENE 9 9 5 5 1025.1 1024.9 0.0
21/03:00am 12.6 8.2 -2.1 36 5.8 ENE 11 13 6 7 1025.1 1024.9 0.0
21/02:30am 14.2 9.6 -1.4 34 6.3 E 13 15 7 8 1025.2 1025.0 0.0
21/02:00am 14.4 9.3 -1.6 33 6.5 E 15 15 8 8 1025.3 1025.1 0.0
21/01:30am 14.8 10.1 -1.7 32 6.7 ENE 13 15 7 8 1025.4 1025.2 0.0
21/01:00am 16.1 11.4 -1.9 29 7.4 ENE 13 15 7 8 1025.3 1025.1 0.0
21/12:30am 17.7 12.7 -1.0 28 7.9 NE 15 19 8 10 1025.3 1025.1 0.0
21/12:00am 18.6 13.2 -1.3 26 8.5 NE 17 24 9 13 1025.2 1025.0 0.0
 
Date/Time
CST
Temp
°C
App
Temp
°C
Dew
Point
Rel
Hum
%
Delta-T
°C
Wind Press
QNH
hPa
Press
MSL
hPa
Rain
since 9 am
mm
Dir
 
Spd
km/h
Gust
km/h
Spd
kts
Gust
kts
20/11:30pm 19.2 13.4 -1.3 25 8.8 ENE 19 24 10 13 1024.9 1024.7 0.0
20/11:00pm 19.8 13.9 -0.8 25 9.0 ENE 20 26 11 14 1024.9 1024.7 0.0
20/10:30pm 20.1 14.2 -0.5 25 9.0 ENE 20 26 11 14 1024.6 1024.4 0.0
20/10:00pm 20.8 14.9 -0.5 24 9.4 ENE 20 28 11 15 1024.6 1024.4 0.0
20/09:30pm 20.8 16.0 0.1 25 9.2 ENE 15 17 8 9 1024.2 1024.0 0.0
20/09:00pm 21.6 16.0 0.2 24 9.6 ENE 19 24 10 13 1023.8 1023.6 0.0
20/08:30pm 22.2 16.7 0.7 24 9.8 ENE 19 22 10 12 1023.1 1022.9 0.0
20/08:00pm 22.0 17.3 1.1 25 9.6 ENE 15 19 8 10 1022.7 1022.5 0.0
20/07:30pm 22.6 17.9 1.0 24 10.0 ENE 15 17 8 9 1022.4 1022.2 0.0
20/07:00pm 23.6 19.3 0.7 22 10.6 ENE 13 15 7 8 1022.0 1021.8 0.0
20/06:30pm 24.5 19.8 0.8 21 11.0 ENE 15 20 8 11 1021.6 1021.4 0.0
20/06:00pm 25.2 21.5 0.0 19 11.6 E 9 15 5 8 1021.2 1021.0 0.0
20/05:30pm 26.4 22.7 0.2 18 12.3 E 9 13 5 7 1021.0 1020.8 0.0
20/05:00pm 26.5 22.7 -0.5 17 12.5 E 9 13 5 7 1020.8 1020.6 0.0
20/04:30pm 26.3 23.2 0.1 18 12.2 SE 6 15 3 8 1020.5 1020.3 0.0
20/04:00pm 27.1 23.5 0.8 18 12.5 N 9 22 5 12 1020.3 1020.2 0.0
20/03:30pm 26.2 22.1 0.0 18 12.2 ENE 11 17 6 9 1020.5 1020.3 0.0
20/03:00pm 27.4 22.3 1.0 18 12.6 NNE 17 28 9 15 1020.6 1020.4 0.0
20/02:30pm 26.0 22.4 0.6 19 11.9 NNE 9 15 5 8 1021.0 1020.8 0.0
20/02:00pm 26.6 23.1 1.1 19 12.2 NNE 9 22 5 12 1021.3 1021.1 0.0
20/01:30pm 26.6 22.0 1.8 20 12.0 N 15 24 8 13 1021.7 1021.5 0.0
20/01:00pm 26.7 23.4 2.6 21 11.8 NNE 9 15 5 8 1021.9 1021.7 0.0
20/12:30pm 26.4 22.8 3.0 22 11.5 NNE 11 20 6 11 1022.3 1022.1 0.0
20/12:00pm 25.5 21.1 2.9 23 11.0 N 15 22 8 12 1022.7 1022.5 0.0
20/11:30am 25.4 21.2 4.0 25 10.6 N 15 24 8 13 1022.9 1022.7 0.0
20/11:00am 24.2 20.3 3.5 26 10.2 N 13 24 7 13 1023.2 1023.0 0.0
20/10:30am 23.4 19.1 3.4 27 9.7 N 15 24 8 13 1023.3 1023.1 0.0
20/10:00am 23.1 18.4 3.1 27 9.7 N 17 22 9 12 1023.5 1023.3 0.0
20/09:30am 22.2 17.0 2.3 27 9.4 N 19 28 10 15 1023.5 1023.3 0.0
20/09:00am 20.8 14.7 0.6 26 9.1 NNE 22 30 12 16 1023.4 1023.2 0.0
20/08:30am 20.0 13.8 -0.1 26 8.9 NNE 22 30 12 16 1023.3 1023.1 0.0
20/08:00am 18.7 12.9 -1.2 26 8.5 NE 19 24 10 13 1023.0 1022.8 0.0
20/07:30am 16.3 12.0 -1.3 30 7.3 ENE 11 15 6 8 1022.7 1022.5 0.0
20/07:00am 12.8 8.4 -2.6 34 6.0 ENE 11 15 6 8 1022.1 1021.9 0.0
20/06:30am 11.5 7.4 -3.0 36 5.5 ENE 9 11 5 6 1021.8 1021.6 0.0
20/06:00am 12.1 7.6 -2.9 35 5.8 E 11 13 6 7 1021.5 1021.3 0.0
20/05:30am 13.0 8.5 -2.9 33 6.2 ENE 11 13 6 7 1021.0 1020.8 0.0
20/05:00am 12.7 8.2 -3.1 33 6.1 E 11 13 6 7 1020.5 1020.3 0.0
20/04:30am 13.9 9.5 -2.1 33 6.4 E 11 15 6 8 1020.2 1020.0 0.0
20/04:00am 14.1 10.5 -2.3 32 6.6 ENE 7 11 4 6 1019.9 1019.7 0.0
20/03:30am 15.0 10.3 -2.0 31 6.9 ENE 13 15 7 8 1019.6 1019.4 0.0
20/03:00am 14.6 10.3 -1.9 32 6.7 E 11 13 6 7 1019.8 1019.6 0.0
20/02:30am 15.2 11.2 -2.2 30 7.0 NE 9 11 5 6 1020.1 1019.9 0.0
20/02:00am 16.8 12.8 -2.3 27 7.9 ENE 9 13 5 7 1020.3 1020.2 0.0
20/01:30am 17.2 12.6 -1.4 28 7.8 E 13 15 7 8 1020.2 1020.0 0.0
20/01:00am 17.6 13.0 -1.1 28 8.0 E 13 15 7 8 1020.6 1020.4 0.0
20/12:30am 18.1 12.7 -1.2 27 8.2 ESE 17 20 9 11 1020.6 1020.4 0.0
20/12:00am 18.6 12.9 -0.7 27 8.3 E 19 24 10 13 1020.5 1020.3 0.0
 
Date/Time
CST
Temp
°C
App
Temp
°C
Dew
Point
Rel
Hum
%
Delta-T
°C
Wind Press
QNH
hPa
Press
MSL
hPa
Rain
since 9 am
mm
Dir
 
Spd
km/h
Gust
km/h
Spd
kts
Gust
kts
19/11:30pm 18.8 13.9 -0.6 27 8.4 ESE 15 19 8 10 1020.8 1020.6 0.0
19/11:00pm 19.1 14.2 -0.8 26 8.6 E 15 19 8 10 1021.0 1020.8 0.0
19/10:30pm 19.7 14.4 -0.9 25 8.9 E 17 20 9 11 1021.0 1020.8 0.0
19/10:00pm 19.8 14.5 -0.8 25 9.0 E 17 22 9 12 1021.1 1020.9 0.0
19/09:30pm 20.0 14.9 -1.7 23 9.3 ESE 15 19 8 10 1021.1 1020.9 0.0
19/09:00pm 19.7 15.4 -1.4 24 9.1 SE 11 13 6 7 1020.8 1020.6 0.0
19/08:30pm 19.6 15.3 -1.5 24 9.0 SE 11 13 6 7 1020.5 1020.3 0.0
19/08:00pm 20.0 15.8 -1.2 24 9.2 SE 11 13 6 7 1020.1 1019.9 0.0
19/07:30pm 20.5 16.7 -0.7 24 9.3 SE 9 13 5 7 1019.6 1019.4 0.0
19/07:00pm 21.6 17.8 -1.0 22 10.0 SE 9 11 5 6 1019.4 1019.2 0.0
19/06:30pm 23.1 19.7 -0.4 21 10.6 ESE 7 7 4 4 1019.3 1019.1 0.0
19/06:00pm 24.2 22.2 -0.2 20 11.2 CALM 0 0 0 0 1019.1 1018.9 0.0
19/05:30pm 25.0 21.8 -0.2 19 11.6 ENE 6 11 3 6 1018.8 1018.6 0.0
19/05:00pm 25.9 22.7 -0.2 18 12.1 S 6 13 3 7 1018.7 1018.5 0.0
19/04:30pm 25.6 22.2 -0.5 18 12.0 ENE 7 13 4 7 1018.7 1018.5 0.0
19/04:00pm 25.5 21.7 -0.5 18 12.0 NNE 9 20 5 11 1018.8 1018.6 0.0
19/03:30pm 25.1 22.6 -0.9 18 11.8 WNW 2 - 1 - - 1018.9 -
19/03:00pm 25.2 21.1 0.0 19 11.6 E 11 19 6 10 1019.3 1019.1 0.0
19/02:30pm 24.9 20.5 0.4 20 11.4 ENE 13 20 7 11 1019.6 1019.4 0.0
19/02:00pm 24.7 21.4 0.3 20 11.3 ENE 7 11 4 6 1020.2 1020.0 0.0
19/01:30pm 24.1 18.9 0.4 21 10.9 NE 17 24 9 13 1020.8 1020.6 0.0
19/01:00pm 24.6 20.3 0.8 21 11.1 N 13 20 7 11 1021.3 1021.1 0.0
19/12:30pm 23.4 18.4 1.1 23 10.4 NE 17 26 9 14 1021.7 1021.5 0.0
19/12:00pm 22.5 17.8 0.9 24 9.9 NNE 15 22 8 12 1022.2 1022.0 0.0
19/11:30am 22.3 17.3 1.3 25 9.7 NE 17 24 9 13 1022.9 1022.7 0.0
19/11:00am 21.4 16.0 1.1 26 9.3 NNE 19 28 10 15 1023.3 1023.1 0.0
19/10:30am 21.1 16.2 1.9 28 8.9 NE 17 24 9 13 1023.6 1023.4 0.0
19/10:00am 20.0 15.2 2.4 31 8.2 ENE 17 24 9 13 1023.8 1023.6 0.0
19/09:30am 18.2 12.9 2.1 34 7.3 ENE 19 24 10 13 1023.9 1023.7 0.0
19/09:00am 16.6 11.2 2.2 38 6.5 ENE 20 24 11 13 1024.1 1023.9 0.0
19/08:30am 15.1 9.9 2.6 43 5.6 ENE 19 26 10 14 1023.9 1023.7 0.0
19/08:00am 13.3 8.1 2.2 47 4.9 E 19 24 10 13 1023.6 1023.4 0.0
19/07:30am 11.8 6.4 2.3 52 4.1 E 20 26 11 14 1023.3 1023.1 0.0
19/07:00am 10.4 5.9 2.0 56 3.6 E 15 20 8 11 1023.1 1022.9 0.0
19/06:30am 9.7 6.0 2.1 59 3.2 E 11 19 6 10 1023.0 1022.8 0.0
19/06:00am 9.2 7.2 2.1 61 3.0 SE 2 9 1 5 1022.6 1022.4 0.0
19/05:30am 9.9 7.1 2.3 59 3.2 E 6 9 3 5 1022.1 1021.9 0.0
19/05:00am 9.6 7.9 2.0 59 3.2 CALM 0 7 0 4 1021.7 1021.5 0.0
19/04:30am 8.4 6.3 2.0 64 2.7 SE 2 9 1 5 1021.5 1021.3 0.0
19/04:00am 6.6 4.6 -0.4 61 2.7 CALM 0 0 0 0 1021.5 1021.3 0.0
19/03:30am 7.6 5.7 0.6 61 2.8 CALM 0 0 0 0 1021.5 1021.3 0.0
19/03:00am 8.1 5.6 1.3 62 2.8 SSW 4 7 2 4 1021.4 1021.2 0.0
19/02:30am 8.2 5.8 0.0 56 3.2 SSW 2 7 1 4 1021.5 1021.3 0.0
19/02:00am 8.9 5.7 0.6 56 3.4 SW 7 9 4 5 1021.6 1021.4 0.0
19/01:30am 8.9 5.3 0.9 57 3.3 S 9 11 5 6 1021.8 1021.6 0.0
19/01:00am 7.7 4.8 -1.0 54 3.4 SSW 4 7 2 4 1022.0 1021.8 0.0
19/12:30am 7.9 3.6 -1.9 50 3.7 ENE 11 11 6 6 1022.1 1021.9 0.0
19/12:00am 8.4 5.8 -1.4 50 3.8 ENE 2 9 1 5 1022.3 1022.1 0.0
 
Date/Time
CST
Temp
°C
App
Temp
°C
Dew
Point
Rel
Hum
%
Delta-T
°C
Wind Press
QNH
hPa
Press
MSL
hPa
Rain
since 9 am
mm
Dir
 
Spd
km/h
Gust
km/h
Spd
kts
Gust
kts
18/11:30pm 9.0 6.9 -0.9 50 3.9 CALM 0 0 0 0 1022.8 1022.6 0.0
18/11:00pm 10.0 7.9 -0.5 48 4.2 CALM 0 6 0 3 1023.0 1022.8 0.0
18/10:30pm 11.1 8.0 1.1 50 4.2 SSE 7 9 4 5 1023.4 1023.2 0.0
18/10:00pm 11.5 8.3 0.6 47 4.5 S 7 9 4 5 1023.7 1023.5 0.0
18/09:30pm 13.8 12.0 1.5 43 5.3 CALM 0 0 0 0 1023.7 1023.5 0.0
18/09:00pm 15.8 13.0 2.2 40 6.1 N 6 7 3 4 1023.8 1023.6 0.0
18/08:30pm 17.0 13.7 2.6 38 6.5 N 9 13 5 7 1023.8 1023.6 0.0
18/08:00pm 17.3 12.5 2.5 37 6.8 N 17 20 9 11 1023.6 1023.4 0.0
18/07:30pm 17.7 12.3 2.5 36 6.9 NNW 20 26 11 14 1023.5 1023.3 0.0
18/07:00pm 18.1 12.8 1.6 33 7.5 NNW 19 26 10 14 1023.4 1023.2 0.0
18/06:30pm 18.8 14.1 0.9 30 8.0 NNW 15 20 8 11 1023.4 1023.2 0.0
18/06:00pm 19.2 13.5 0.8 29 8.2 NW 20 28 11 15 1023.3 1023.1 0.0
18/05:50pm 19.3 11.3 0.4 28 8.4 NNW 32 43 17 23 1023.1 1022.9 0.0
18/05:30pm 19.8 14.3 0.3 27 8.7 WNW 19 24 10 13 1023.0 1022.8 0.0
18/05:00pm 20.3 15.7 -0.9 24 9.3 W 13 19 7 10 1022.5 1022.3 0.0
18/04:30pm 20.4 16.6 -0.8 24 9.3 W 9 13 5 7 1022.6 1022.4 0.0
18/04:00pm 20.4 16.2 -0.8 24 9.3 WNW 11 15 6 8 1022.8 1022.6 0.0

Other Formats:

Comma delimited format used in spreadsheet applications
http://www.bom.gov.au/fwo/IDS60801/IDS60801.94655.axf

JavaScript Object Notation format (JSON) in row-major order
http://www.bom.gov.au/fwo/IDS60801/IDS60801.94655.json